sensor_id;sensor_type;location;lat;lon;timestamp;pressure;altitude;pressure_sealevel;temperature;humidity
9439;BME280;5176;42.622;25.386;2023-05-12T00:00:20;97687.66;;;9.34;83.43
9439;BME280;5176;42.622;25.386;2023-05-12T00:02:49;97681.91;;;9.27;83.37
9439;BME280;5176;42.622;25.386;2023-05-12T00:05:18;97684.38;;;9.30;83.03
9439;BME280;5176;42.622;25.386;2023-05-12T00:07:46;97680.81;;;9.31;82.00
9439;BME280;5176;42.622;25.386;2023-05-12T00:10:15;97685.03;;;9.34;82.53
9439;BME280;5176;42.622;25.386;2023-05-12T00:12:44;97698.66;;;9.40;82.21
9439;BME280;5176;42.622;25.386;2023-05-12T00:15:14;97686.31;;;9.42;81.89
9439;BME280;5176;42.622;25.386;2023-05-12T00:17:45;97688.78;;;9.45;81.99
9439;BME280;5176;42.622;25.386;2023-05-12T00:20:13;97682.72;;;9.45;81.17
9439;BME280;5176;42.622;25.386;2023-05-12T00:22:42;97680.94;;;9.45;81.73
9439;BME280;5176;42.622;25.386;2023-05-12T00:25:10;97684.50;;;9.44;81.25
9439;BME280;5176;42.622;25.386;2023-05-12T00:27:39;97680.19;;;9.43;81.06
9439;BME280;5176;42.622;25.386;2023-05-12T00:30:09;97674.09;;;9.43;80.15
9439;BME280;5176;42.622;25.386;2023-05-12T00:32:41;97674.16;;;9.41;79.72
9439;BME280;5176;42.622;25.386;2023-05-12T00:35:09;97674.56;;;9.34;79.52
9439;BME280;5176;42.622;25.386;2023-05-12T00:37:38;97673.19;;;9.26;79.69
9439;BME280;5176;42.622;25.386;2023-05-12T00:40:09;97676.00;;;9.23;80.13
9439;BME280;5176;42.622;25.386;2023-05-12T00:42:38;97668.38;;;9.19;80.08
9439;BME280;5176;42.622;25.386;2023-05-12T00:45:07;97668.44;;;9.17;81.49
9439;BME280;5176;42.622;25.386;2023-05-12T00:47:37;97670.22;;;9.17;82.12
9439;BME280;5176;42.622;25.386;2023-05-12T00:50:09;97673.91;;;9.13;81.27
9439;BME280;5176;42.622;25.386;2023-05-12T00:52:38;97670.69;;;9.08;80.02
9439;BME280;5176;42.622;25.386;2023-05-12T00:55:07;97675.53;;;8.98;79.84
9439;BME280;5176;42.622;25.386;2023-05-12T00:57:36;97671.59;;;8.89;80.54
9439;BME280;5176;42.622;25.386;2023-05-12T01:00:06;97669.44;;;8.80;81.50
9439;BME280;5176;42.622;25.386;2023-05-12T01:02:35;97659.59;;;8.68;80.73
9439;BME280;5176;42.622;25.386;2023-05-12T01:05:04;97664.78;;;8.69;81.57
9439;BME280;5176;42.622;25.386;2023-05-12T01:07:36;97669.22;;;8.67;81.39
9439;BME280;5176;42.622;25.386;2023-05-12T01:10:16;97674.53;;;8.66;82.00
9439;BME280;5176;42.622;25.386;2023-05-12T01:12:45;97674.75;;;8.61;81.85
9439;BME280;5176;42.622;25.386;2023-05-12T01:15:15;97674.19;;;8.55;81.40
9439;BME280;5176;42.622;25.386;2023-05-12T01:17:48;97673.66;;;8.48;82.96
9439;BME280;5176;42.622;25.386;2023-05-12T01:20:21;97667.25;;;8.36;84.65
9439;BME280;5176;42.622;25.386;2023-05-12T01:22:54;97669.00;;;8.36;84.99
9439;BME280;5176;42.622;25.386;2023-05-12T01:25:23;97663.91;;;8.33;86.42
9439;BME280;5176;42.622;25.386;2023-05-12T01:27:55;97661.50;;;8.28;86.95
9439;BME280;5176;42.622;25.386;2023-05-12T01:30:25;97670.56;;;8.21;88.02
9439;BME280;5176;42.622;25.386;2023-05-12T01:32:54;97657.78;;;8.15;88.85
9439;BME280;5176;42.622;25.386;2023-05-12T01:35:22;97669.72;;;8.20;90.48
9439;BME280;5176;42.622;25.386;2023-05-12T01:37:51;97664.28;;;8.25;90.51
9439;BME280;5176;42.622;25.386;2023-05-12T01:40:20;97659.91;;;8.26;90.45
9439;BME280;5176;42.622;25.386;2023-05-12T01:42:49;97668.44;;;8.29;89.33
9439;BME280;5176;42.622;25.386;2023-05-12T01:45:19;97678.03;;;8.29;88.87
9439;BME280;5176;42.622;25.386;2023-05-12T01:47:48;97669.59;;;8.24;88.30
9439;BME280;5176;42.622;25.386;2023-05-12T01:50:17;97667.94;;;8.21;88.14
9439;BME280;5176;42.622;25.386;2023-05-12T01:52:45;97674.00;;;8.22;88.61
9439;BME280;5176;42.622;25.386;2023-05-12T01:55:15;97673.88;;;8.25;89.34
9439;BME280;5176;42.622;25.386;2023-05-12T01:57:43;97683.41;;;8.26;89.53
9439;BME280;5176;42.622;25.386;2023-05-12T02:00:12;97677.13;;;8.30;89.72
9439;BME280;5176;42.622;25.386;2023-05-12T02:02:43;97674.19;;;8.37;90.58
9439;BME280;5176;42.622;25.386;2023-05-12T02:05:12;97680.72;;;8.46;90.40
9439;BME280;5176;42.622;25.386;2023-05-12T02:07:41;97683.25;;;8.48;89.34
9439;BME280;5176;42.622;25.386;2023-05-12T02:10:10;97678.88;;;8.48;88.69
9439;BME280;5176;42.622;25.386;2023-05-12T02:12:39;97672.16;;;8.42;88.20
9439;BME280;5176;42.622;25.386;2023-05-12T02:15:09;97675.03;;;8.38;87.34
9439;BME280;5176;42.622;25.386;2023-05-12T02:17:37;97680.31;;;8.36;87.83
9439;BME280;5176;42.622;25.386;2023-05-12T02:20:09;97678.72;;;8.32;88.22
9439;BME280;5176;42.622;25.386;2023-05-12T02:22:38;97674.44;;;8.31;88.80
9439;BME280;5176;42.622;25.386;2023-05-12T02:25:08;97676.00;;;8.35;90.11
9439;BME280;5176;42.622;25.386;2023-05-12T02:27:36;97676.34;;;8.28;89.39
9439;BME280;5176;42.622;25.386;2023-05-12T02:30:06;97676.50;;;7.87;89.67
9439;BME280;5176;42.622;25.386;2023-05-12T02:32:35;97682.94;;;7.80;90.61
9439;BME280;5176;42.622;25.386;2023-05-12T02:35:05;97678.78;;;7.76;90.96
9439;BME280;5176;42.622;25.386;2023-05-12T02:37:35;97675.28;;;7.75;91.33
9439;BME280;5176;42.622;25.386;2023-05-12T02:40:05;97676.03;;;7.79;92.07
9439;BME280;5176;42.622;25.386;2023-05-12T02:42:34;97675.28;;;7.75;90.71
9439;BME280;5176;42.622;25.386;2023-05-12T02:45:04;97671.00;;;7.74;90.74
9439;BME280;5176;42.622;25.386;2023-05-12T02:47:34;97677.78;;;7.78;90.63
9439;BME280;5176;42.622;25.386;2023-05-12T02:50:03;97673.41;;;7.79;91.01
9439;BME280;5176;42.622;25.386;2023-05-12T02:52:32;97675.81;;;7.83;91.15
9439;BME280;5176;42.622;25.386;2023-05-12T02:55:03;97680.97;;;7.85;92.49
9439;BME280;5176;42.622;25.386;2023-05-12T02:57:33;97670.44;;;7.86;92.29
9439;BME280;5176;42.622;25.386;2023-05-12T03:00:02;97676.66;;;7.84;91.83
9439;BME280;5176;42.622;25.386;2023-05-12T03:02:32;97680.19;;;7.83;91.02
9439;BME280;5176;42.622;25.386;2023-05-12T03:05:00;97671.28;;;7.87;92.04
9439;BME280;5176;42.622;25.386;2023-05-12T03:07:29;97676.38;;;7.90;92.76
9439;BME280;5176;42.622;25.386;2023-05-12T03:09:58;97675.31;;;7.94;92.60
9439;BME280;5176;42.622;25.386;2023-05-12T03:12:29;97681.25;;;7.98;92.42
9439;BME280;5176;42.622;25.386;2023-05-12T03:14:58;97681.53;;;7.91;92.71
9439;BME280;5176;42.622;25.386;2023-05-12T03:17:27;97682.56;;;7.87;93.38
9439;BME280;5176;42.622;25.386;2023-05-12T03:19:56;97688.50;;;7.91;93.74
9439;BME280;5176;42.622;25.386;2023-05-12T03:22:24;97674.75;;;7.87;94.01
9439;BME280;5176;42.622;25.386;2023-05-12T03:24:53;97688.50;;;7.91;93.92
9439;BME280;5176;42.622;25.386;2023-05-12T03:27:21;97685.75;;;7.94;93.11
9439;BME280;5176;42.622;25.386;2023-05-12T03:29:52;97683.06;;;7.96;93.35
9439;BME280;5176;42.622;25.386;2023-05-12T03:32:20;97684.63;;;8.00;93.90
9439;BME280;5176;42.622;25.386;2023-05-12T03:34:49;97693.94;;;8.05;94.75
9439;BME280;5176;42.622;25.386;2023-05-12T03:37:18;97686.09;;;8.05;94.09
9439;BME280;5176;42.622;25.386;2023-05-12T03:39:47;97689.34;;;8.10;95.32
9439;BME280;5176;42.622;25.386;2023-05-12T03:42:15;97693.56;;;8.13;95.57
9439;BME280;5176;42.622;25.386;2023-05-12T03:44:44;97696.09;;;8.14;96.24
9439;BME280;5176;42.622;25.386;2023-05-12T03:47:14;97706.34;;;8.19;95.83
9439;BME280;5176;42.622;25.386;2023-05-12T03:49:43;97706.06;;;8.25;96.79
9439;BME280;5176;42.622;25.386;2023-05-12T03:52:11;97713.81;;;8.27;96.15
9439;BME280;5176;42.622;25.386;2023-05-12T03:54:40;97703.25;;;8.30;96.35
9439;BME280;5176;42.622;25.386;2023-05-12T03:57:09;97708.19;;;8.36;96.76
9439;BME280;5176;42.622;25.386;2023-05-12T03:59:39;97710.84;;;8.34;97.26
9439;BME280;5176;42.622;25.386;2023-05-12T04:02:08;97716.16;;;8.33;97.96
9439;BME280;5176;42.622;25.386;2023-05-12T04:04:39;97715.13;;;8.37;98.69
9439;BME280;5176;42.622;25.386;2023-05-12T04:07:08;97714.97;;;8.40;99.31
9439;BME280;5176;42.622;25.386;2023-05-12T04:09:37;97713.75;;;8.47;99.56
9439;BME280;5176;42.622;25.386;2023-05-12T04:12:06;97721.22;;;8.55;98.83
9439;BME280;5176;42.622;25.386;2023-05-12T04:14:35;97721.84;;;8.60;97.32
9439;BME280;5176;42.622;25.386;2023-05-12T04:17:04;97728.41;;;8.68;97.86
9439;BME280;5176;42.622;25.386;2023-05-12T04:19:33;97722.97;;;8.73;97.58
9439;BME280;5176;42.622;25.386;2023-05-12T04:22:04;97721.72;;;8.80;97.40
9439;BME280;5176;42.622;25.386;2023-05-12T04:24:32;97728.28;;;8.89;98.50
9439;BME280;5176;42.622;25.386;2023-05-12T04:27:01;97727.94;;;8.96;98.59
9439;BME280;5176;42.622;25.386;2023-05-12T04:29:30;97727.84;;;8.98;98.63
9439;BME280;5176;42.622;25.386;2023-05-12T04:31:59;97725.06;;;9.01;98.19
9439;BME280;5176;42.622;25.386;2023-05-12T04:34:27;97730.16;;;9.04;98.38
9439;BME280;5176;42.622;25.386;2023-05-12T04:36:56;97734.16;;;9.11;98.59
9439;BME280;5176;42.622;25.386;2023-05-12T04:39:26;97724.66;;;9.09;97.76
9439;BME280;5176;42.622;25.386;2023-05-12T04:41:55;97732.38;;;9.12;98.69
9439;BME280;5176;42.622;25.386;2023-05-12T04:44:24;97733.34;;;9.09;99.55
9439;BME280;5176;42.622;25.386;2023-05-12T04:46:53;97726.31;;;9.11;99.76
9439;BME280;5176;42.622;25.386;2023-05-12T04:49:22;97734.28;;;9.08;100.00
9439;BME280;5176;42.622;25.386;2023-05-12T04:51:51;97728.91;;;9.11;99.75
9439;BME280;5176;42.622;25.386;2023-05-12T04:54:20;97734.91;;;9.13;99.85
9439;BME280;5176;42.622;25.386;2023-05-12T04:56:51;97738.69;;;9.25;98.50
9439;BME280;5176;42.622;25.386;2023-05-12T04:59:20;97727.66;;;9.36;97.86
9439;BME280;5176;42.622;25.386;2023-05-12T05:01:49;97728.13;;;9.44;97.11
9439;BME280;5176;42.622;25.386;2023-05-12T05:04:18;97734.28;;;9.43;97.18
9439;BME280;5176;42.622;25.386;2023-05-12T05:06:47;97737.50;;;9.48;97.02
9439;BME280;5176;42.622;25.386;2023-05-12T05:09:16;97735.69;;;9.50;96.99
9439;BME280;5176;42.622;25.386;2023-05-12T05:11:46;97733.59;;;9.57;96.27
9439;BME280;5176;42.622;25.386;2023-05-12T05:14:16;97734.03;;;9.65;95.57
9439;BME280;5176;42.622;25.386;2023-05-12T05:16:45;97735.22;;;9.75;94.51
9439;BME280;5176;42.622;25.386;2023-05-12T05:19:14;97735.50;;;9.86;93.81
9439;BME280;5176;42.622;25.386;2023-05-12T05:21:43;97729.78;;;9.95;93.63
9439;BME280;5176;42.622;25.386;2023-05-12T05:24:11;97730.22;;;10.03;92.96
9439;BME280;5176;42.622;25.386;2023-05-12T05:26:40;97736.97;;;10.07;93.47
9439;BME280;5176;42.622;25.386;2023-05-12T05:29:09;97733.09;;;10.15;94.54
9439;BME280;5176;42.622;25.386;2023-05-12T05:31:40;97731.53;;;10.28;94.46
9439;BME280;5176;42.622;25.386;2023-05-12T05:34:09;97731.06;;;10.37;92.75
9439;BME280;5176;42.622;25.386;2023-05-12T05:36:38;97730.13;;;10.38;87.57
9439;BME280;5176;42.622;25.386;2023-05-12T05:39:06;97729.41;;;10.34;84.63
9439;BME280;5176;42.622;25.386;2023-05-12T05:41:36;97737.69;;;10.43;85.38
9439;BME280;5176;42.622;25.386;2023-05-12T05:44:04;97728.59;;;10.34;86.76
9439;BME280;5176;42.622;25.386;2023-05-12T05:46:33;97735.72;;;10.15;88.11
9439;BME280;5176;42.622;25.386;2023-05-12T05:49:03;97724.56;;;10.11;91.34
9439;BME280;5176;42.622;25.386;2023-05-12T05:51:31;97725.69;;;10.23;88.35
9439;BME280;5176;42.622;25.386;2023-05-12T05:54:00;97723.34;;;10.34;87.89
9439;BME280;5176;42.622;25.386;2023-05-12T05:56:28;97718.19;;;10.32;91.92
9439;BME280;5176;42.622;25.386;2023-05-12T05:58:58;97727.81;;;10.48;88.84
9439;BME280;5176;42.622;25.386;2023-05-12T06:01:29;97721.66;;;10.64;85.76
9439;BME280;5176;42.622;25.386;2023-05-12T06:03:58;97724.41;;;10.77;86.16
9439;BME280;5176;42.622;25.386;2023-05-12T06:06:28;97720.06;;;10.92;85.26
9439;BME280;5176;42.622;25.386;2023-05-12T06:08:57;97717.66;;;11.03;84.06
9439;BME280;5176;42.622;25.386;2023-05-12T06:11:26;97728.03;;;11.21;83.41
9439;BME280;5176;42.622;25.386;2023-05-12T06:13:55;97731.47;;;11.37;83.88
9439;BME280;5176;42.622;25.386;2023-05-12T06:16:24;97732.31;;;11.52;82.42
9439;BME280;5176;42.622;25.386;2023-05-12T06:18:53;97708.59;;;11.53;81.53
9439;BME280;5176;42.622;25.386;2023-05-12T06:21:22;97738.19;;;11.85;80.84
9439;BME280;5176;42.622;25.386;2023-05-12T06:23:52;97729.38;;;12.00;78.47
9439;BME280;5176;42.622;25.386;2023-05-12T06:26:22;97721.59;;;11.99;73.82
9439;BME280;5176;42.622;25.386;2023-05-12T06:28:50;97734.97;;;12.09;72.87
9439;BME280;5176;42.622;25.386;2023-05-12T06:31:19;97733.13;;;12.11;67.02
9439;BME280;5176;42.622;25.386;2023-05-12T06:33:48;97738.28;;;12.12;68.96
9439;BME280;5176;42.622;25.386;2023-05-12T06:36:17;97738.28;;;12.12;66.25
9439;BME280;5176;42.622;25.386;2023-05-12T06:38:45;97741.16;;;12.22;66.36
9439;BME280;5176;42.622;25.386;2023-05-12T06:41:15;97742.66;;;12.26;61.57
9439;BME280;5176;42.622;25.386;2023-05-12T06:43:44;97734.56;;;12.29;59.36
9439;BME280;5176;42.622;25.386;2023-05-12T06:46:13;97730.47;;;12.25;60.22
9439;BME280;5176;42.622;25.386;2023-05-12T06:48:42;97742.31;;;12.18;56.93
9439;BME280;5176;42.622;25.386;2023-05-12T06:51:10;97742.94;;;12.21;57.44
9439;BME280;5176;42.622;25.386;2023-05-12T06:53:39;97743.13;;;12.33;57.32
9439;BME280;5176;42.622;25.386;2023-05-12T06:56:08;97743.31;;;12.44;57.46
9439;BME280;5176;42.622;25.386;2023-05-12T06:58:39;97749.31;;;12.46;57.81
9439;BME280;5176;42.622;25.386;2023-05-12T07:01:08;97741.13;;;12.50;56.88
9439;BME280;5176;42.622;25.386;2023-05-12T07:03:36;97745.94;;;12.44;55.46
9439;BME280;5176;42.622;25.386;2023-05-12T07:06:06;97747.97;;;12.53;56.64
9439;BME280;5176;42.622;25.386;2023-05-12T07:08:35;97745.16;;;12.42;58.30
9439;BME280;5176;42.622;25.386;2023-05-12T07:11:03;97746.94;;;12.55;57.48
9439;BME280;5176;42.622;25.386;2023-05-12T07:13:32;97744.06;;;12.46;56.32
9439;BME280;5176;42.622;25.386;2023-05-12T07:16:02;97746.19;;;12.53;55.60
9439;BME280;5176;42.622;25.386;2023-05-12T07:18:31;97751.66;;;12.50;55.88
9439;BME280;5176;42.622;25.386;2023-05-12T07:21:00;97743.00;;;12.48;55.12
9439;BME280;5176;42.622;25.386;2023-05-12T07:23:29;97741.66;;;12.55;55.59
9439;BME280;5176;42.622;25.386;2023-05-12T07:25:58;97734.63;;;12.56;54.63
9439;BME280;5176;42.622;25.386;2023-05-12T07:28:27;97740.88;;;12.68;56.07
9439;BME280;5176;42.622;25.386;2023-05-12T07:30:58;97745.69;;;12.61;55.49
9439;BME280;5176;42.622;25.386;2023-05-12T07:33:28;97749.03;;;12.77;54.49
9439;BME280;5176;42.622;25.386;2023-05-12T07:35:57;97743.22;;;12.99;55.40
9439;BME280;5176;42.622;25.386;2023-05-12T07:38:26;97751.16;;;13.12;54.25
9439;BME280;5176;42.622;25.386;2023-05-12T07:40:55;97749.81;;;13.19;53.62
9439;BME280;5176;42.622;25.386;2023-05-12T07:43:23;97751.91;;;13.14;54.30
9439;BME280;5176;42.622;25.386;2023-05-12T07:45:52;97756.72;;;13.34;54.86
9439;BME280;5176;42.622;25.386;2023-05-12T07:48:22;97756.16;;;13.29;53.29
9439;BME280;5176;42.622;25.386;2023-05-12T07:50:52;97744.28;;;13.36;53.05
9439;BME280;5176;42.622;25.386;2023-05-12T07:53:21;97739.88;;;13.50;52.23
9439;BME280;5176;42.622;25.386;2023-05-12T07:55:49;97741.38;;;13.79;52.05
9439;BME280;5176;42.622;25.386;2023-05-12T07:58:18;97741.25;;;14.06;51.93
9439;BME280;5176;42.622;25.386;2023-05-12T08:00:47;97737.81;;;14.42;51.63
9439;BME280;5176;42.622;25.386;2023-05-12T08:03:15;97734.41;;;14.66;49.18
9439;BME280;5176;42.622;25.386;2023-05-12T08:05:44;97739.78;;;14.64;48.88
9439;BME280;5176;42.622;25.386;2023-05-12T08:08:15;97729.69;;;14.58;48.74
9439;BME280;5176;42.622;25.386;2023-05-12T08:10:43;97743.09;;;14.55;47.71
